sensor_id;sensor_type;location;lat;lon;timestamp;P1;durP1;ratioP1;P2;durP2;ratioP2
71183;SDS011;58887;51.980;4.464;2023-07-29T00:00:59;1.07;;;1.03;;
71183;SDS011;58887;51.980;4.464;2023-07-29T00:03:40;1.11;;;1.06;;
71183;SDS011;58887;51.980;4.464;2023-07-29T00:06:06;1.26;;;1.18;;
71183;SDS011;58887;51.980;4.464;2023-07-29T00:11:17;1.04;;;0.98;;
71183;SDS011;58887;51.980;4.464;2023-07-29T00:13:43;0.92;;;0.86;;
71183;SDS011;58887;51.980;4.464;2023-07-29T00:16:10;1.04;;;0.99;;
71183;SDS011;58887;51.980;4.464;2023-07-29T00:18:35;1.03;;;0.99;;
71183;SDS011;58887;51.980;4.464;2023-07-29T00:21:01;1.09;;;1.06;;
71183;SDS011;58887;51.980;4.464;2023-07-29T00:23:26;1.02;;;1.00;;
71183;SDS011;58887;51.980;4.464;2023-07-29T00:25:53;0.90;;;0.88;;
71183;SDS011;58887;51.980;4.464;2023-07-29T00:28:21;0.88;;;0.85;;
71183;SDS011;58887;51.980;4.464;2023-07-29T00:30:46;1.03;;;1.01;;
71183;SDS011;58887;51.980;4.464;2023-07-29T00:33:11;0.98;;;0.96;;
71183;SDS011;58887;51.980;4.464;2023-07-29T00:35:37;1.27;;;1.24;;
71183;SDS011;58887;51.980;4.464;2023-07-29T00:38:03;1.15;;;1.13;;
71183;SDS011;58887;51.980;4.464;2023-07-29T00:40:29;1.07;;;1.06;;
71183;SDS011;58887;51.980;4.464;2023-07-29T00:42:56;1.17;;;1.17;;
71183;SDS011;58887;51.980;4.464;2023-07-29T00:45:23;1.23;;;1.21;;
71183;SDS011;58887;51.980;4.464;2023-07-29T00:47:52;1.23;;;1.23;;
71183;SDS011;58887;51.980;4.464;2023-07-29T00:50:18;1.26;;;1.26;;
71183;SDS011;58887;51.980;4.464;2023-07-29T00:52:45;1.38;;;1.37;;
71183;SDS011;58887;51.980;4.464;2023-07-29T00:55:11;1.19;;;1.18;;
71183;SDS011;58887;51.980;4.464;2023-07-29T00:57:37;1.03;;;1.02;;
71183;SDS011;58887;51.980;4.464;2023-07-29T01:00:03;1.10;;;1.09;;
71183;SDS011;58887;51.980;4.464;2023-07-29T01:02:31;1.03;;;1.02;;
71183;SDS011;58887;51.980;4.464;2023-07-29T01:04:58;1.20;;;1.19;;
71183;SDS011;58887;51.980;4.464;2023-07-29T01:18:35;1.16;;;1.14;;
71183;SDS011;58887;51.980;4.464;2023-07-29T01:21:04;1.23;;;1.22;;
71183;SDS011;58887;51.980;4.464;2023-07-29T01:23:33;1.18;;;1.17;;
71183;SDS011;58887;51.980;4.464;2023-07-29T01:26:01;1.11;;;1.10;;
71183;SDS011;58887;51.980;4.464;2023-07-29T01:28:27;1.14;;;1.14;;
71183;SDS011;58887;51.980;4.464;2023-07-29T01:34:39;1.18;;;1.17;;
71183;SDS011;58887;51.980;4.464;2023-07-29T01:37:37;1.37;;;1.36;;
71183;SDS011;58887;51.980;4.464;2023-07-29T01:40:07;1.29;;;1.28;;
71183;SDS011;58887;51.980;4.464;2023-07-29T01:42:36;1.16;;;1.15;;
71183;SDS011;58887;51.980;4.464;2023-07-29T01:45:05;1.18;;;1.17;;
71183;SDS011;58887;51.980;4.464;2023-07-29T01:47:31;1.44;;;1.43;;
71183;SDS011;58887;51.980;4.464;2023-07-29T01:52:32;1.15;;;1.14;;
71183;SDS011;58887;51.980;4.464;2023-07-29T01:54:57;1.29;;;1.28;;
71183;SDS011;58887;51.980;4.464;2023-07-29T01:57:23;1.20;;;1.20;;
71183;SDS011;58887;51.980;4.464;2023-07-29T01:59:49;1.30;;;1.29;;
71183;SDS011;58887;51.980;4.464;2023-07-29T02:02:14;1.42;;;1.41;;
71183;SDS011;58887;51.980;4.464;2023-07-29T02:04:41;1.23;;;1.23;;
71183;SDS011;58887;51.980;4.464;2023-07-29T02:10:07;1.42;;;1.42;;
71183;SDS011;58887;51.980;4.464;2023-07-29T02:12:33;1.16;;;1.15;;
71183;SDS011;58887;51.980;4.464;2023-07-29T02:14:59;1.45;;;1.44;;
71183;SDS011;58887;51.980;4.464;2023-07-29T02:17:24;1.30;;;1.30;;
71183;SDS011;58887;51.980;4.464;2023-07-29T02:19:51;1.22;;;1.22;;
71183;SDS011;58887;51.980;4.464;2023-07-29T02:22:17;1.14;;;1.14;;
71183;SDS011;58887;51.980;4.464;2023-07-29T02:24:43;1.29;;;1.29;;
71183;SDS011;58887;51.980;4.464;2023-07-29T02:27:11;1.15;;;1.15;;
71183;SDS011;58887;51.980;4.464;2023-07-29T02:29:37;1.34;;;1.34;;
71183;SDS011;58887;51.980;4.464;2023-07-29T02:32:02;1.32;;;1.32;;
71183;SDS011;58887;51.980;4.464;2023-07-29T02:34:28;1.28;;;1.28;;
71183;SDS011;58887;51.980;4.464;2023-07-29T02:36:54;1.25;;;1.25;;
71183;SDS011;58887;51.980;4.464;2023-07-29T02:39:19;1.12;;;1.12;;
71183;SDS011;58887;51.980;4.464;2023-07-29T02:41:45;1.10;;;1.10;;
71183;SDS011;58887;51.980;4.464;2023-07-29T02:44:17;1.24;;;1.24;;
71183;SDS011;58887;51.980;4.464;2023-07-29T02:46:45;1.21;;;1.21;;
71183;SDS011;58887;51.980;4.464;2023-07-29T02:49:11;1.38;;;1.38;;
71183;SDS011;58887;51.980;4.464;2023-07-29T02:51:36;1.23;;;1.23;;
71183;SDS011;58887;51.980;4.464;2023-07-29T02:54:02;1.29;;;1.29;;
71183;SDS011;58887;51.980;4.464;2023-07-29T02:56:27;1.28;;;1.28;;
71183;SDS011;58887;51.980;4.464;2023-07-29T02:58:53;1.34;;;1.34;;
71183;SDS011;58887;51.980;4.464;2023-07-29T03:01:18;1.54;;;1.54;;
71183;SDS011;58887;51.980;4.464;2023-07-29T03:03:44;1.31;;;1.31;;
71183;SDS011;58887;51.980;4.464;2023-07-29T03:06:10;1.43;;;1.43;;
71183;SDS011;58887;51.980;4.464;2023-07-29T03:08:39;1.31;;;1.31;;
71183;SDS011;58887;51.980;4.464;2023-07-29T03:11:05;1.49;;;1.49;;
71183;SDS011;58887;51.980;4.464;2023-07-29T03:13:32;1.30;;;1.30;;
71183;SDS011;58887;51.980;4.464;2023-07-29T03:16:14;1.39;;;1.39;;
71183;SDS011;58887;51.980;4.464;2023-07-29T03:18:41;1.59;;;1.59;;
71183;SDS011;58887;51.980;4.464;2023-07-29T03:21:08;1.38;;;1.38;;
71183;SDS011;58887;51.980;4.464;2023-07-29T03:23:34;1.73;;;1.72;;
71183;SDS011;58887;51.980;4.464;2023-07-29T03:26:00;1.71;;;1.70;;
71183;SDS011;58887;51.980;4.464;2023-07-29T03:28:29;1.54;;;1.53;;
71183;SDS011;58887;51.980;4.464;2023-07-29T03:30:59;1.56;;;1.55;;
71183;SDS011;58887;51.980;4.464;2023-07-29T03:33:25;2.00;;;2.00;;
71183;SDS011;58887;51.980;4.464;2023-07-29T03:35:51;1.47;;;1.46;;
71183;SDS011;58887;51.980;4.464;2023-07-29T03:38:18;1.62;;;1.61;;
71183;SDS011;58887;51.980;4.464;2023-07-29T03:40:44;1.73;;;1.72;;
71183;SDS011;58887;51.980;4.464;2023-07-29T03:43:09;1.92;;;1.90;;
71183;SDS011;58887;51.980;4.464;2023-07-29T03:45:35;2.03;;;2.01;;
71183;SDS011;58887;51.980;4.464;2023-07-29T03:48:02;1.77;;;1.76;;
71183;SDS011;58887;51.980;4.464;2023-07-29T03:50:30;1.87;;;1.87;;
71183;SDS011;58887;51.980;4.464;2023-07-29T03:52:56;2.17;;;2.16;;
71183;SDS011;58887;51.980;4.464;2023-07-29T03:55:22;2.11;;;2.10;;
71183;SDS011;58887;51.980;4.464;2023-07-29T03:57:47;2.37;;;2.35;;
71183;SDS011;58887;51.980;4.464;2023-07-29T04:00:13;2.17;;;2.15;;
71183;SDS011;58887;51.980;4.464;2023-07-29T04:02:38;2.13;;;2.12;;
71183;SDS011;58887;51.980;4.464;2023-07-29T04:05:05;2.20;;;2.20;;
71183;SDS011;58887;51.980;4.464;2023-07-29T04:07:34;2.28;;;2.27;;
71183;SDS011;58887;51.980;4.464;2023-07-29T04:10:01;2.14;;;2.13;;
71183;SDS011;58887;51.980;4.464;2023-07-29T04:12:26;2.45;;;2.45;;
71183;SDS011;58887;51.980;4.464;2023-07-29T04:14:53;2.42;;;2.41;;
71183;SDS011;58887;51.980;4.464;2023-07-29T04:17:18;2.39;;;2.38;;
71183;SDS011;58887;51.980;4.464;2023-07-29T04:19:44;2.46;;;2.46;;
71183;SDS011;58887;51.980;4.464;2023-07-29T04:22:09;2.48;;;2.48;;
71183;SDS011;58887;51.980;4.464;2023-07-29T04:24:35;2.40;;;2.39;;
71183;SDS011;58887;51.980;4.464;2023-07-29T04:27:01;2.56;;;2.55;;
71183;SDS011;58887;51.980;4.464;2023-07-29T04:29:27;2.52;;;2.50;;
71183;SDS011;58887;51.980;4.464;2023-07-29T04:31:52;2.18;;;2.17;;
71183;SDS011;58887;51.980;4.464;2023-07-29T04:34:18;2.49;;;2.49;;
71183;SDS011;58887;51.980;4.464;2023-07-29T04:36:45;2.65;;;2.65;;
71183;SDS011;58887;51.980;4.464;2023-07-29T04:39:11;2.54;;;2.54;;
71183;SDS011;58887;51.980;4.464;2023-07-29T04:41:37;2.82;;;2.82;;
71183;SDS011;58887;51.980;4.464;2023-07-29T04:44:03;3.03;;;3.03;;
71183;SDS011;58887;51.980;4.464;2023-07-29T04:46:29;2.79;;;2.79;;
71183;SDS011;58887;51.980;4.464;2023-07-29T04:48:56;2.69;;;2.69;;
71183;SDS011;58887;51.980;4.464;2023-07-29T04:51:22;2.58;;;2.58;;
71183;SDS011;58887;51.980;4.464;2023-07-29T04:53:48;2.52;;;2.52;;
71183;SDS011;58887;51.980;4.464;2023-07-29T04:56:14;2.78;;;2.78;;
71183;SDS011;58887;51.980;4.464;2023-07-29T04:58:46;2.92;;;2.91;;
71183;SDS011;58887;51.980;4.464;2023-07-29T05:01:12;2.61;;;2.61;;
71183;SDS011;58887;51.980;4.464;2023-07-29T05:03:37;2.66;;;2.66;;
71183;SDS011;58887;51.980;4.464;2023-07-29T05:06:05;2.71;;;2.71;;
71183;SDS011;58887;51.980;4.464;2023-07-29T05:08:30;2.93;;;2.92;;
71183;SDS011;58887;51.980;4.464;2023-07-29T05:10:56;2.81;;;2.80;;
71183;SDS011;58887;51.980;4.464;2023-07-29T05:13:22;2.62;;;2.61;;
71183;SDS011;58887;51.980;4.464;2023-07-29T05:15:49;2.62;;;2.62;;
71183;SDS011;58887;51.980;4.464;2023-07-29T05:18:15;2.70;;;2.69;;
71183;SDS011;58887;51.980;4.464;2023-07-29T05:20:42;2.65;;;2.64;;
71183;SDS011;58887;51.980;4.464;2023-07-29T05:23:08;2.88;;;2.87;;
71183;SDS011;58887;51.980;4.464;2023-07-29T05:25:33;2.73;;;2.72;;
71183;SDS011;58887;51.980;4.464;2023-07-29T05:28:02;2.77;;;2.77;;
71183;SDS011;58887;51.980;4.464;2023-07-29T05:30:28;2.54;;;2.54;;
71183;SDS011;58887;51.980;4.464;2023-07-29T05:32:58;2.63;;;2.63;;
71183;SDS011;58887;51.980;4.464;2023-07-29T05:35:24;2.55;;;2.55;;
71183;SDS011;58887;51.980;4.464;2023-07-29T05:37:50;2.73;;;2.73;;
71183;SDS011;58887;51.980;4.464;2023-07-29T05:40:17;2.87;;;2.87;;
71183;SDS011;58887;51.980;4.464;2023-07-29T05:42:43;2.54;;;2.54;;
71183;SDS011;58887;51.980;4.464;2023-07-29T05:45:10;2.79;;;2.79;;
71183;SDS011;58887;51.980;4.464;2023-07-29T05:47:36;2.48;;;2.47;;
71183;SDS011;58887;51.980;4.464;2023-07-29T05:50:01;2.57;;;2.56;;
71183;SDS011;58887;51.980;4.464;2023-07-29T05:52:30;2.40;;;2.40;;
71183;SDS011;58887;51.980;4.464;2023-07-29T05:54:56;2.27;;;2.27;;
71183;SDS011;58887;51.980;4.464;2023-07-29T06:00:05;2.39;;;2.38;;
71183;SDS011;58887;51.980;4.464;2023-07-29T06:02:32;2.15;;;2.13;;
71183;SDS011;58887;51.980;4.464;2023-07-29T06:04:58;2.03;;;2.02;;
71183;SDS011;58887;51.980;4.464;2023-07-29T06:07:23;1.89;;;1.89;;
71183;SDS011;58887;51.980;4.464;2023-07-29T06:09:49;2.09;;;2.09;;
71183;SDS011;58887;51.980;4.464;2023-07-29T06:12:15;2.28;;;2.28;;
71183;SDS011;58887;51.980;4.464;2023-07-29T06:14:41;2.28;;;2.27;;
71183;SDS011;58887;51.980;4.464;2023-07-29T06:17:07;2.24;;;2.23;;
71183;SDS011;58887;51.980;4.464;2023-07-29T06:19:32;2.02;;;2.02;;
71183;SDS011;58887;51.980;4.464;2023-07-29T06:21:57;2.17;;;2.17;;
71183;SDS011;58887;51.980;4.464;2023-07-29T06:24:23;2.00;;;2.00;;
71183;SDS011;58887;51.980;4.464;2023-07-29T06:26:49;1.97;;;1.97;;
71183;SDS011;58887;51.980;4.464;2023-07-29T06:29:14;1.91;;;1.91;;
71183;SDS011;58887;51.980;4.464;2023-07-29T06:31:39;1.81;;;1.80;;
71183;SDS011;58887;51.980;4.464;2023-07-29T06:34:05;1.74;;;1.74;;
71183;SDS011;58887;51.980;4.464;2023-07-29T06:36:30;1.63;;;1.63;;
71183;SDS011;58887;51.980;4.464;2023-07-29T06:38:56;1.83;;;1.80;;
71183;SDS011;58887;51.980;4.464;2023-07-29T06:41:21;1.67;;;1.64;;
71183;SDS011;58887;51.980;4.464;2023-07-29T06:43:47;1.64;;;1.63;;
71183;SDS011;58887;51.980;4.464;2023-07-29T06:46:18;1.43;;;1.43;;
71183;SDS011;58887;51.980;4.464;2023-07-29T06:48:45;1.41;;;1.41;;
71183;SDS011;58887;51.980;4.464;2023-07-29T06:51:10;1.38;;;1.38;;
71183;SDS011;58887;51.980;4.464;2023-07-29T06:53:36;1.40;;;1.40;;
71183;SDS011;58887;51.980;4.464;2023-07-29T06:56:01;1.73;;;1.73;;
71183;SDS011;58887;51.980;4.464;2023-07-29T06:58:28;2.07;;;2.07;;
71183;SDS011;58887;51.980;4.464;2023-07-29T07:00:54;1.72;;;1.72;;
71183;SDS011;58887;51.980;4.464;2023-07-29T07:03:19;1.68;;;1.68;;
71183;SDS011;58887;51.980;4.464;2023-07-29T07:05:45;1.50;;;1.50;;
71183;SDS011;58887;51.980;4.464;2023-07-29T07:08:11;1.65;;;1.65;;
71183;SDS011;58887;51.980;4.464;2023-07-29T07:10:36;1.53;;;1.53;;
71183;SDS011;58887;51.980;4.464;2023-07-29T07:13:02;1.38;;;1.38;;
71183;SDS011;58887;51.980;4.464;2023-07-29T07:15:27;1.14;;;1.14;;
71183;SDS011;58887;51.980;4.464;2023-07-29T07:17:53;1.39;;;1.39;;
71183;SDS011;58887;51.980;4.464;2023-07-29T07:20:19;1.14;;;1.11;;
71183;SDS011;58887;51.980;4.464;2023-07-29T07:22:45;1.18;;;1.15;;
71183;SDS011;58887;51.980;4.464;2023-07-29T07:25:21;1.26;;;1.25;;
71183;SDS011;58887;51.980;4.464;2023-07-29T07:27:49;1.09;;;1.07;;
71183;SDS011;58887;51.980;4.464;2023-07-29T07:32:54;0.96;;;0.94;;
71183;SDS011;58887;51.980;4.464;2023-07-29T07:35:26;1.02;;;1.00;;
71183;SDS011;58887;51.980;4.464;2023-07-29T07:37:53;1.12;;;1.08;;
71183;SDS011;58887;51.980;4.464;2023-07-29T07:40:18;1.11;;;1.06;;
71183;SDS011;58887;51.980;4.464;2023-07-29T07:42:46;1.08;;;1.03;;
71183;SDS011;58887;51.980;4.464;2023-07-29T07:45:11;1.09;;;1.03;;
71183;SDS011;58887;51.980;4.464;2023-07-29T07:47:37;0.92;;;0.87;;
71183;SDS011;58887;51.980;4.464;2023-07-29T07:50:02;1.12;;;1.06;;
71183;SDS011;58887;51.980;4.464;2023-07-29T07:52:28;1.10;;;1.04;;
71183;SDS011;58887;51.980;4.464;2023-07-29T07:54:54;1.14;;;1.07;;
71183;SDS011;58887;51.980;4.464;2023-07-29T07:57:23;1.10;;;1.04;;
71183;SDS011;58887;51.980;4.464;2023-07-29T07:59:51;1.16;;;1.10;;
71183;SDS011;58887;51.980;4.464;2023-07-29T08:02:18;1.12;;;1.06;;
71183;SDS011;58887;51.980;4.464;2023-07-29T08:04:44;1.19;;;1.13;;
71183;SDS011;58887;51.980;4.464;2023-07-29T08:09:59;1.22;;;1.17;;
71183;SDS011;58887;51.980;4.464;2023-07-29T08:12:25;1.06;;;1.02;;
71183;SDS011;58887;51.980;4.464;2023-07-29T08:14:56;1.14;;;1.10;;
71183;SDS011;58887;51.980;4.464;2023-07-29T08:17:26;1.02;;;0.99;;
71183;SDS011;58887;51.980;4.464;2023-07-29T08:22:23;1.13;;;1.10;;
71183;SDS011;58887;51.980;4.464;2023-07-29T08:24:49;0.84;;;0.83;;
71183;SDS011;58887;51.980;4.464;2023-07-29T08:27:14;1.06;;;1.04;;
71183;SDS011;58887;51.980;4.464;2023-07-29T08:29:43;0.98;;;0.96;;
71183;SDS011;58887;51.980;4.464;2023-07-29T08:32:09;1.23;;;1.20;;
71183;SDS011;58887;51.980;4.464;2023-07-29T08:34:39;1.07;;;1.04;;
71183;SDS011;58887;51.980;4.464;2023-07-29T08:37:05;1.45;;;1.40;;
71183;SDS011;58887;51.980;4.464;2023-07-29T08:39:30;1.38;;;1.36;;
71183;SDS011;58887;51.980;4.464;2023-07-29T08:41:59;1.43;;;1.43;;
71183;SDS011;58887;51.980;4.464;2023-07-29T08:44:31;1.55;;;1.55;;
71183;SDS011;58887;51.980;4.464;2023-07-29T08:47:05;1.37;;;1.36;;
71183;SDS011;58887;51.980;4.464;2023-07-29T08:52:02;1.30;;;1.29;;
71183;SDS011;58887;51.980;4.464;2023-07-29T08:54:35;1.50;;;1.50;;
71183;SDS011;58887;51.980;4.464;2023-07-29T08:57:09;1.89;;;1.89;;
71183;SDS011;58887;51.980;4.464;2023-07-29T08:59:45;1.35;;;1.35;;
71183;SDS011;58887;51.980;4.464;2023-07-29T09:02:12;1.66;;;1.66;;
71183;SDS011;58887;51.980;4.464;2023-07-29T09:07:08;1.77;;;1.77;;
71183;SDS011;58887;51.980;4.464;2023-07-29T09:09:36;1.93;;;1.93;;
71183;SDS011;58887;51.980;4.464;2023-07-29T09:12:03;1.93;;;1.93;;
71183;SDS011;58887;51.980;4.464;2023-07-29T09:14:29;2.16;;;2.16;;
71183;SDS011;58887;51.980;4.464;2023-07-29T09:16:55;1.87;;;1.87;;
71183;SDS011;58887;51.980;4.464;2023-07-29T09:19:25;2.22;;;2.22;;
71183;SDS011;58887;51.980;4.464;2023-07-29T09:21:52;1.84;;;1.84;;
71183;SDS011;58887;51.980;4.464;2023-07-29T09:24:18;1.76;;;1.76;;
71183;SDS011;58887;51.980;4.464;2023-07-29T09:26:49;1.75;;;1.75;;
71183;SDS011;58887;51.980;4.464;2023-07-29T09:29:30;1.85;;;1.85;;
71183;SDS011;58887;51.980;4.464;2023-07-29T09:32:17;1.44;;;1.44;;
71183;SDS011;58887;51.980;4.464;2023-07-29T09:34:44;1.54;;;1.54;;
71183;SDS011;58887;51.980;4.464;2023-07-29T09:37:12;1.20;;;1.20;;
71183;SDS011;58887;51.980;4.464;2023-07-29T09:39:44;1.45;;;1.45;;
71183;SDS011;58887;51.980;4.464;2023-07-29T09:42:19;1.55;;;1.55;;
71183;SDS011;58887;51.980;4.464;2023-07-29T09:44:48;1.61;;;1.61;;
71183;SDS011;58887;51.980;4.464;2023-07-29T09:47:25;1.40;;;1.40;;
71183;SDS011;58887;51.980;4.464;2023-07-29T09:50:03;1.34;;;1.34;;
71183;SDS011;58887;51.980;4.464;2023-07-29T09:55:04;1.35;;;1.35;;
71183;SDS011;58887;51.980;4.464;2023-07-29T09:57:31;1.35;;;1.35;;
71183;SDS011;58887;51.980;4.464;2023-07-29T09:59:57;1.37;;;1.37;;
71183;SDS011;58887;51.980;4.464;2023-07-29T10:02:30;1.24;;;1.24;;
71183;SDS011;58887;51.980;4.464;2023-07-29T10:04:58;1.28;;;1.28;;
71183;SDS011;58887;51.980;4.464;2023-07-29T10:07:32;1.02;;;1.02;;
71183;SDS011;58887;51.980;4.464;2023-07-29T10:10:01;1.15;;;1.15;;
71183;SDS011;58887;51.980;4.464;2023-07-29T10:12:35;0.93;;;0.93;;
71183;SDS011;58887;51.980;4.464;2023-07-29T10:17:39;0.84;;;0.84;;
71183;SDS011;58887;51.980;4.464;2023-07-29T10:20:20;0.88;;;0.88;;
71183;SDS011;58887;51.980;4.464;2023-07-29T10:22:48;0.94;;;0.94;;
71183;SDS011;58887;51.980;4.464;2023-07-29T10:25:17;0.70;;;0.69;;
71183;SDS011;58887;51.980;4.464;2023-07-29T10:27:52;0.48;;;0.47;;
71183;SDS011;58887;51.980;4.464;2023-07-29T10:30:32;0.52;;;0.51;;
71183;SDS011;58887;51.980;4.464;2023-07-29T10:35:34;0.54;;;0.53;;
71183;SDS011;58887;51.980;4.464;2023-07-29T10:38:14;0.45;;;0.44;;
71183;SDS011;58887;51.980;4.464;2023-07-29T10:40:53;0.71;;;0.70;;
71183;SDS011;58887;51.980;4.464;2023-07-29T10:43:35;0.55;;;0.54;;
71183;SDS011;58887;51.980;4.464;2023-07-29T10:48:57;0.69;;;0.69;;
71183;SDS011;58887;51.980;4.464;2023-07-29T10:56:49;1.04;;;1.04;;
71183;SDS011;58887;51.980;4.464;2023-07-29T11:01:53;1.10;;;1.10;;
71183;SDS011;58887;51.980;4.464;2023-07-29T11:15:22;1.58;;;1.58;;
71183;SDS011;58887;51.980;4.464;2023-07-29T11:17:59;1.57;;;1.57;;
71183;SDS011;58887;51.980;4.464;2023-07-29T11:20:35;1.48;;;1.48;;
71183;SDS011;58887;51.980;4.464;2023-07-29T11:23:06;1.27;;;1.27;;
71183;SDS011;58887;51.980;4.464;2023-07-29T11:25:31;1.43;;;1.43;;
71183;SDS011;58887;51.980;4.464;2023-07-29T11:28:01;1.41;;;1.41;;
71183;SDS011;58887;51.980;4.464;2023-07-29T11:30:27;1.38;;;1.38;;
71183;SDS011;58887;51.980;4.464;2023-07-29T11:32:58;1.58;;;1.58;;
71183;SDS011;58887;51.980;4.464;2023-07-29T11:39:09;1.51;;;1.51;;
71183;SDS011;58887;51.980;4.464;2023-07-29T11:41:35;1.45;;;1.45;;
71183;SDS011;58887;51.980;4.464;2023-07-29T11:49:25;1.64;;;1.64;;
71183;SDS011;58887;51.980;4.464;2023-07-29T11:54:38;1.67;;;1.67;;
71183;SDS011;58887;51.980;4.464;2023-07-29T11:57:08;1.45;;;1.45;;
71183;SDS011;58887;51.980;4.464;2023-07-29T11:59:41;1.35;;;1.35;;
71183;SDS011;58887;51.980;4.464;2023-07-29T12:02:13;1.23;;;1.23;;
71183;SDS011;58887;51.980;4.464;2023-07-29T12:07:20;1.07;;;1.07;;
71183;SDS011;58887;51.980;4.464;2023-07-29T12:09:52;1.20;;;1.20;;
71183;SDS011;58887;51.980;4.464;2023-07-29T12:12:18;1.14;;;1.14;;
71183;SDS011;58887;51.980;4.464;2023-07-29T12:14:44;1.23;;;1.23;;
71183;SDS011;58887;51.980;4.464;2023-07-29T12:17:14;1.14;;;1.14;;
71183;SDS011;58887;51.980;4.464;2023-07-29T12:19:41;1.03;;;1.03;;
71183;SDS011;58887;51.980;4.464;2023-07-29T12:24:38;0.91;;;0.91;;
71183;SDS011;58887;51.980;4.464;2023-07-29T12:27:09;0.97;;;0.97;;
71183;SDS011;58887;51.980;4.464;2023-07-29T12:29:43;0.89;;;0.89;;
71183;SDS011;58887;51.980;4.464;2023-07-29T12:32:09;1.13;;;1.13;;
71183;SDS011;58887;51.980;4.464;2023-07-29T12:34:35;1.17;;;1.17;;
71183;SDS011;58887;51.980;4.464;2023-07-29T12:37:03;1.15;;;1.15;;
71183;SDS011;58887;51.980;4.464;2023-07-29T12:39:30;1.16;;;1.16;;
71183;SDS011;58887;51.980;4.464;2023-07-29T12:41:58;1.03;;;1.03;;
71183;SDS011;58887;51.980;4.464;2023-07-29T12:44:29;1.07;;;1.07;;
71183;SDS011;58887;51.980;4.464;2023-07-29T12:46:57;1.32;;;1.32;;
71183;SDS011;58887;51.980;4.464;2023-07-29T12:49:24;1.10;;;1.10;;
71183;SDS011;58887;51.980;4.464;2023-07-29T12:51:50;1.19;;;1.19;;
71183;SDS011;58887;51.980;4.464;2023-07-29T12:54:15;1.36;;;1.36;;
71183;SDS011;58887;51.980;4.464;2023-07-29T12:56:41;1.16;;;1.16;;
71183;SDS011;58887;51.980;4.464;2023-07-29T12:59:11;1.10;;;1.10;;
71183;SDS011;58887;51.980;4.464;2023-07-29T13:01:52;1.21;;;1.21;;
71183;SDS011;58887;51.980;4.464;2023-07-29T13:04:19;1.34;;;1.34;;
71183;SDS011;58887;51.980;4.464;2023-07-29T13:09:28;1.14;;;1.14;;
71183;SDS011;58887;51.980;4.464;2023-07-29T13:11:54;1.24;;;1.24;;
71183;SDS011;58887;51.980;4.464;2023-07-29T13:14:28;1.06;;;1.06;;
71183;SDS011;58887;51.980;4.464;2023-07-29T13:16:54;0.95;;;0.95;;
71183;SDS011;58887;51.980;4.464;2023-07-29T13:19:21;1.02;;;1.02;;
71183;SDS011;58887;51.980;4.464;2023-07-29T13:21:46;0.87;;;0.87;;
71183;SDS011;58887;51.980;4.464;2023-07-29T13:24:12;1.12;;;1.12;;
71183;SDS011;58887;51.980;4.464;2023-07-29T13:26:37;1.15;;;1.14;;
71183;SDS011;58887;51.980;4.464;2023-07-29T13:29:04;1.14;;;1.13;;
71183;SDS011;58887;51.980;4.464;2023-07-29T13:31:31;0.94;;;0.93;;
71183;SDS011;58887;51.980;4.464;2023-07-29T13:34:11;0.91;;;0.89;;
71183;SDS011;58887;51.980;4.464;2023-07-29T13:36:52;0.92;;;0.91;;
71183;SDS011;58887;51.980;4.464;2023-07-29T13:39:23;0.76;;;0.75;;
71183;SDS011;58887;51.980;4.464;2023-07-29T13:41:48;0.72;;;0.71;;
71183;SDS011;58887;51.980;4.464;2023-07-29T13:44:15;1.05;;;1.05;;
71183;SDS011;58887;51.980;4.464;2023-07-29T13:49:12;1.20;;;1.20;;
71183;SDS011;58887;51.980;4.464;2023-07-29T13:51:37;1.12;;;1.12;;
71183;SDS011;58887;51.980;4.464;2023-07-29T13:54:05;0.89;;;0.89;;
71183;SDS011;58887;51.980;4.464;2023-07-29T13:56:48;0.94;;;0.94;;
71183;SDS011;58887;51.980;4.464;2023-07-29T13:59:16;0.88;;;0.88;;
71183;SDS011;58887;51.980;4.464;2023-07-29T14:01:42;0.82;;;0.82;;
71183;SDS011;58887;51.980;4.464;2023-07-29T14:04:08;0.91;;;0.91;;
71183;SDS011;58887;51.980;4.464;2023-07-29T14:06:34;0.91;;;0.91;;
71183;SDS011;58887;51.980;4.464;2023-07-29T14:08:59;0.98;;;0.98;;
71183;SDS011;58887;51.980;4.464;2023-07-29T14:11:25;0.85;;;0.85;;
71183;SDS011;58887;51.980;4.464;2023-07-29T14:13:50;1.00;;;1.00;;
71183;SDS011;58887;51.980;4.464;2023-07-29T14:16:16;1.13;;;1.13;;
71183;SDS011;58887;51.980;4.464;2023-07-29T14:18:46;0.94;;;0.94;;
71183;SDS011;58887;51.980;4.464;2023-07-29T14:21:11;0.80;;;0.80;;
71183;SDS011;58887;51.980;4.464;2023-07-29T14:23:37;0.93;;;0.93;;
71183;SDS011;58887;51.980;4.464;2023-07-29T14:26:02;0.78;;;0.78;;
71183;SDS011;58887;51.980;4.464;2023-07-29T14:28:34;0.86;;;0.86;;
71183;SDS011;58887;51.980;4.464;2023-07-29T14:30:59;0.81;;;0.81;;
71183;SDS011;58887;51.980;4.464;2023-07-29T14:33:26;0.92;;;0.92;;
71183;SDS011;58887;51.980;4.464;2023-07-29T14:35:51;0.96;;;0.96;;
71183;SDS011;58887;51.980;4.464;2023-07-29T14:38:17;0.77;;;0.77;;
71183;SDS011;58887;51.980;4.464;2023-07-29T14:40:43;0.72;;;0.72;;
71183;SDS011;58887;51.980;4.464;2023-07-29T14:43:09;1.03;;;1.03;;
71183;SDS011;58887;51.980;4.464;2023-07-29T14:45:35;0.91;;;0.91;;
71183;SDS011;58887;51.980;4.464;2023-07-29T14:48:00;0.90;;;0.90;;
71183;SDS011;58887;51.980;4.464;2023-07-29T14:50:26;1.02;;;1.02;;
71183;SDS011;58887;51.980;4.464;2023-07-29T14:52:53;0.93;;;0.93;;
71183;SDS011;58887;51.980;4.464;2023-07-29T14:55:19;1.14;;;1.14;;
71183;SDS011;58887;51.980;4.464;2023-07-29T14:57:45;0.97;;;0.97;;
71183;SDS011;58887;51.980;4.464;2023-07-29T15:00:12;0.94;;;0.94;;
71183;SDS011;58887;51.980;4.464;2023-07-29T15:02:40;0.84;;;0.84;;
71183;SDS011;58887;51.980;4.464;2023-07-29T15:05:06;0.83;;;0.83;;
71183;SDS011;58887;51.980;4.464;2023-07-29T15:07:32;0.89;;;0.89;;
71183;SDS011;58887;51.980;4.464;2023-07-29T15:09:58;0.74;;;0.74;;
71183;SDS011;58887;51.980;4.464;2023-07-29T15:12:27;0.88;;;0.88;;
71183;SDS011;58887;51.980;4.464;2023-07-29T15:14:53;1.09;;;1.09;;
71183;SDS011;58887;51.980;4.464;2023-07-29T15:17:19;1.09;;;1.09;;
71183;SDS011;58887;51.980;4.464;2023-07-29T15:19:46;1.53;;;1.53;;
71183;SDS011;58887;51.980;4.464;2023-07-29T15:22:16;1.15;;;1.15;;
71183;SDS011;58887;51.980;4.464;2023-07-29T15:24:44;1.00;;;1.00;;
71183;SDS011;58887;51.980;4.464;2023-07-29T15:27:28;0.93;;;0.93;;
71183;SDS011;58887;51.980;4.464;2023-07-29T15:30:02;0.91;;;0.91;;
71183;SDS011;58887;51.980;4.464;2023-07-29T15:32:28;1.14;;;1.14;;
71183;SDS011;58887;51.980;4.464;2023-07-29T15:37:32;0.95;;;0.93;;
71183;SDS011;58887;51.980;4.464;2023-07-29T15:40:00;0.90;;;0.87;;
71183;SDS011;58887;51.980;4.464;2023-07-29T15:42:26;1.01;;;0.97;;
71183;SDS011;58887;51.980;4.464;2023-07-29T15:47:23;0.99;;;0.94;;
71183;SDS011;58887;51.980;4.464;2023-07-29T15:49:50;1.07;;;1.02;;
71183;SDS011;58887;51.980;4.464;2023-07-29T15:52:17;1.15;;;1.10;;
71183;SDS011;58887;51.980;4.464;2023-07-29T15:54:43;1.04;;;0.99;;
71183;SDS011;58887;51.980;4.464;2023-07-29T15:57:10;1.22;;;1.16;;
71183;SDS011;58887;51.980;4.464;2023-07-29T15:59:35;1.16;;;1.08;;
71183;SDS011;58887;51.980;4.464;2023-07-29T16:02:01;1.22;;;1.14;;
71183;SDS011;58887;51.980;4.464;2023-07-29T16:04:27;1.06;;;0.99;;
71183;SDS011;58887;51.980;4.464;2023-07-29T16:06:53;1.08;;;1.02;;
71183;SDS011;58887;51.980;4.464;2023-07-29T16:09:19;1.08;;;1.03;;
71183;SDS011;58887;51.980;4.464;2023-07-29T16:11:47;1.10;;;1.08;;
71183;SDS011;58887;51.980;4.464;2023-07-29T16:14:13;1.28;;;1.20;;
71183;SDS011;58887;51.980;4.464;2023-07-29T16:16:39;1.29;;;1.21;;
71183;SDS011;58887;51.980;4.464;2023-07-29T16:19:06;1.32;;;1.25;;
71183;SDS011;58887;51.980;4.464;2023-07-29T16:21:31;1.24;;;1.20;;
71183;SDS011;58887;51.980;4.464;2023-07-29T16:23:57;1.56;;;1.51;;
71183;SDS011;58887;51.980;4.464;2023-07-29T16:26:23;1.26;;;1.20;;